sensor_id;sensor_type;location;lat;lon;timestamp;temperature;humidity
21602;DHT22;10963;50.934;4.668;2023-09-08T00:01:55;21.80;99.90
21602;DHT22;10963;50.934;4.668;2023-09-08T00:04:21;21.80;99.90
21602;DHT22;10963;50.934;4.668;2023-09-08T00:06:49;21.80;99.90
21602;DHT22;10963;50.934;4.668;2023-09-08T00:09:15;21.80;99.90
21602;DHT22;10963;50.934;4.668;2023-09-08T00:11:43;21.90;99.90
21602;DHT22;10963;50.934;4.668;2023-09-08T00:14:11;21.80;99.90
21602;DHT22;10963;50.934;4.668;2023-09-08T00:16:37;21.80;99.90
21602;DHT22;10963;50.934;4.668;2023-09-08T00:19:04;21.80;99.90
21602;DHT22;10963;50.934;4.668;2023-09-08T00:21:30;21.70;99.90
21602;DHT22;10963;50.934;4.668;2023-09-08T00:23:56;21.70;99.90
21602;DHT22;10963;50.934;4.668;2023-09-08T00:26:22;21.70;99.90
21602;DHT22;10963;50.934;4.668;2023-09-08T00:28:48;21.60;99.90
21602;DHT22;10963;50.934;4.668;2023-09-08T00:31:14;21.50;99.90
21602;DHT22;10963;50.934;4.668;2023-09-08T00:33:39;21.50;99.90
21602;DHT22;10963;50.934;4.668;2023-09-08T00:36:08;21.50;99.90
21602;DHT22;10963;50.934;4.668;2023-09-08T00:38:39;21.40;99.90
21602;DHT22;10963;50.934;4.668;2023-09-08T00:41:05;21.50;99.90
21602;DHT22;10963;50.934;4.668;2023-09-08T00:43:35;21.50;99.90
21602;DHT22;10963;50.934;4.668;2023-09-08T00:46:03;21.40;99.90
21602;DHT22;10963;50.934;4.668;2023-09-08T00:48:32;21.30;99.90
21602;DHT22;10963;50.934;4.668;2023-09-08T00:51:02;21.20;99.90
21602;DHT22;10963;50.934;4.668;2023-09-08T00:53:33;21.20;99.90
21602;DHT22;10963;50.934;4.668;2023-09-08T00:55:59;21.20;99.90
21602;DHT22;10963;50.934;4.668;2023-09-08T00:58:29;21.20;99.90
21602;DHT22;10963;50.934;4.668;2023-09-08T01:00:57;21.20;99.90
21602;DHT22;10963;50.934;4.668;2023-09-08T01:03:25;21.20;99.90
21602;DHT22;10963;50.934;4.668;2023-09-08T01:05:51;21.20;99.90
21602;DHT22;10963;50.934;4.668;2023-09-08T01:08:18;21.20;99.90
21602;DHT22;10963;50.934;4.668;2023-09-08T01:10:44;21.20;99.90
21602;DHT22;10963;50.934;4.668;2023-09-08T01:13:10;21.30;99.90
21602;DHT22;10963;50.934;4.668;2023-09-08T01:15:36;21.30;99.90
21602;DHT22;10963;50.934;4.668;2023-09-08T01:18:01;21.30;99.90
21602;DHT22;10963;50.934;4.668;2023-09-08T01:20:31;21.30;99.90
21602;DHT22;10963;50.934;4.668;2023-09-08T01:23:18;21.20;99.90
21602;DHT22;10963;50.934;4.668;2023-09-08T01:25:55;21.20;99.90
21602;DHT22;10963;50.934;4.668;2023-09-08T01:28:22;21.20;99.90
21602;DHT22;10963;50.934;4.668;2023-09-08T01:30:49;21.20;99.90
21602;DHT22;10963;50.934;4.668;2023-09-08T01:33:16;21.20;99.90
21602;DHT22;10963;50.934;4.668;2023-09-08T01:35:45;21.20;99.90
21602;DHT22;10963;50.934;4.668;2023-09-08T01:38:11;21.20;99.90
21602;DHT22;10963;50.934;4.668;2023-09-08T01:40:41;21.10;99.90
21602;DHT22;10963;50.934;4.668;2023-09-08T01:43:09;21.00;99.90
21602;DHT22;10963;50.934;4.668;2023-09-08T01:45:35;20.90;99.90
21602;DHT22;10963;50.934;4.668;2023-09-08T01:48:04;20.90;99.90
21602;DHT22;10963;50.934;4.668;2023-09-08T01:50:29;20.90;99.90
21602;DHT22;10963;50.934;4.668;2023-09-08T01:52:55;20.80;99.90
21602;DHT22;10963;50.934;4.668;2023-09-08T01:55:21;20.80;99.90
21602;DHT22;10963;50.934;4.668;2023-09-08T01:57:47;20.80;99.90
21602;DHT22;10963;50.934;4.668;2023-09-08T02:00:15;20.90;99.90
21602;DHT22;10963;50.934;4.668;2023-09-08T02:02:41;20.80;99.90
21602;DHT22;10963;50.934;4.668;2023-09-08T02:05:07;20.80;99.90
21602;DHT22;10963;50.934;4.668;2023-09-08T02:07:38;20.90;99.90
21602;DHT22;10963;50.934;4.668;2023-09-08T02:10:06;20.80;99.90
21602;DHT22;10963;50.934;4.668;2023-09-08T02:12:32;20.80;99.90
21602;DHT22;10963;50.934;4.668;2023-09-08T02:14:57;20.70;99.90
21602;DHT22;10963;50.934;4.668;2023-09-08T02:17:28;20.70;99.90
21602;DHT22;10963;50.934;4.668;2023-09-08T02:19:54;20.70;99.90
21602;DHT22;10963;50.934;4.668;2023-09-08T02:22:20;20.70;99.90
21602;DHT22;10963;50.934;4.668;2023-09-08T02:24:48;20.60;99.90
21602;DHT22;10963;50.934;4.668;2023-09-08T02:27:16;20.60;99.90
21602;DHT22;10963;50.934;4.668;2023-09-08T02:29:42;20.50;99.90
21602;DHT22;10963;50.934;4.668;2023-09-08T02:32:09;20.50;99.90
21602;DHT22;10963;50.934;4.668;2023-09-08T02:34:38;20.50;99.90
21602;DHT22;10963;50.934;4.668;2023-09-08T02:37:03;20.50;99.90
21602;DHT22;10963;50.934;4.668;2023-09-08T02:39:32;20.50;99.90
21602;DHT22;10963;50.934;4.668;2023-09-08T02:42:00;20.50;99.90
21602;DHT22;10963;50.934;4.668;2023-09-08T02:44:26;20.50;99.90
21602;DHT22;10963;50.934;4.668;2023-09-08T02:46:52;20.40;99.90
21602;DHT22;10963;50.934;4.668;2023-09-08T02:49:21;20.30;99.90
21602;DHT22;10963;50.934;4.668;2023-09-08T02:51:49;20.30;99.90
21602;DHT22;10963;50.934;4.668;2023-09-08T02:54:17;20.30;99.90
21602;DHT22;10963;50.934;4.668;2023-09-08T02:56:43;20.30;99.90
21602;DHT22;10963;50.934;4.668;2023-09-08T02:59:08;20.30;99.90
21602;DHT22;10963;50.934;4.668;2023-09-08T03:01:34;20.30;99.90
21602;DHT22;10963;50.934;4.668;2023-09-08T03:04:04;20.30;99.90
21602;DHT22;10963;50.934;4.668;2023-09-08T03:06:30;20.30;99.90
21602;DHT22;10963;50.934;4.668;2023-09-08T03:08:57;20.20;99.90
21602;DHT22;10963;50.934;4.668;2023-09-08T03:11:25;20.10;99.90
21602;DHT22;10963;50.934;4.668;2023-09-08T03:13:51;20.00;99.90
21602;DHT22;10963;50.934;4.668;2023-09-08T03:16:17;20.00;99.90
21602;DHT22;10963;50.934;4.668;2023-09-08T03:18:45;19.90;99.90
21602;DHT22;10963;50.934;4.668;2023-09-08T03:21:16;19.90;99.90
21602;DHT22;10963;50.934;4.668;2023-09-08T03:23:46;19.90;99.90
21602;DHT22;10963;50.934;4.668;2023-09-08T03:26:11;20.00;99.90
21602;DHT22;10963;50.934;4.668;2023-09-08T03:28:41;20.00;99.90
21602;DHT22;10963;50.934;4.668;2023-09-08T03:31:07;19.90;99.90
21602;DHT22;10963;50.934;4.668;2023-09-08T03:33:33;19.90;99.90
21602;DHT22;10963;50.934;4.668;2023-09-08T03:36:01;19.90;99.90
21602;DHT22;10963;50.934;4.668;2023-09-08T03:38:29;19.90;99.90
21602;DHT22;10963;50.934;4.668;2023-09-08T03:40:57;20.00;99.90
21602;DHT22;10963;50.934;4.668;2023-09-08T03:43:23;19.90;99.90
21602;DHT22;10963;50.934;4.668;2023-09-08T03:45:48;19.90;99.90
21602;DHT22;10963;50.934;4.668;2023-09-08T03:48:14;19.90;99.90
21602;DHT22;10963;50.934;4.668;2023-09-08T03:50:42;19.80;99.90
21602;DHT22;10963;50.934;4.668;2023-09-08T03:53:13;19.80;99.90
21602;DHT22;10963;50.934;4.668;2023-09-08T03:55:41;19.80;99.90
21602;DHT22;10963;50.934;4.668;2023-09-08T03:58:09;19.70;99.90
21602;DHT22;10963;50.934;4.668;2023-09-08T04:00:35;19.70;99.90
21602;DHT22;10963;50.934;4.668;2023-09-08T04:03:03;19.60;99.90
21602;DHT22;10963;50.934;4.668;2023-09-08T04:05:29;19.60;99.90
21602;DHT22;10963;50.934;4.668;2023-09-08T04:07:57;19.60;99.90
21602;DHT22;10963;50.934;4.668;2023-09-08T04:10:25;19.60;99.90
21602;DHT22;10963;50.934;4.668;2023-09-08T04:12:51;19.60;99.90
21602;DHT22;10963;50.934;4.668;2023-09-08T04:15:17;19.60;99.90
21602;DHT22;10963;50.934;4.668;2023-09-08T04:17:45;19.60;99.90
21602;DHT22;10963;50.934;4.668;2023-09-08T04:20:11;19.80;99.90
21602;DHT22;10963;50.934;4.668;2023-09-08T04:22:39;19.60;99.90
21602;DHT22;10963;50.934;4.668;2023-09-08T04:25:05;19.60;99.90
21602;DHT22;10963;50.934;4.668;2023-09-08T04:27:35;19.50;99.90
21602;DHT22;10963;50.934;4.668;2023-09-08T04:30:05;19.50;99.90
21602;DHT22;10963;50.934;4.668;2023-09-08T04:32:34;19.50;99.90
21602;DHT22;10963;50.934;4.668;2023-09-08T04:35:02;19.60;99.90
21602;DHT22;10963;50.934;4.668;2023-09-08T04:37:28;19.50;99.90
21602;DHT22;10963;50.934;4.668;2023-09-08T04:39:58;19.40;99.90
21602;DHT22;10963;50.934;4.668;2023-09-08T04:42:23;19.40;99.90
21602;DHT22;10963;50.934;4.668;2023-09-08T04:44:49;19.40;99.90
21602;DHT22;10963;50.934;4.668;2023-09-08T04:47:17;19.40;99.90
21602;DHT22;10963;50.934;4.668;2023-09-08T04:49:43;19.40;99.90
21602;DHT22;10963;50.934;4.668;2023-09-08T04:52:11;19.40;99.90
21602;DHT22;10963;50.934;4.668;2023-09-08T04:54:39;19.40;99.90
21602;DHT22;10963;50.934;4.668;2023-09-08T04:57:08;19.40;99.90
21602;DHT22;10963;50.934;4.668;2023-09-08T04:59:33;19.40;99.90
21602;DHT22;10963;50.934;4.668;2023-09-08T05:02:02;19.30;99.90
21602;DHT22;10963;50.934;4.668;2023-09-08T05:04:28;19.30;99.90
21602;DHT22;10963;50.934;4.668;2023-09-08T05:06:56;19.20;99.90
21602;DHT22;10963;50.934;4.668;2023-09-08T05:09:24;19.20;99.90
21602;DHT22;10963;50.934;4.668;2023-09-08T05:11:49;19.10;99.90
21602;DHT22;10963;50.934;4.668;2023-09-08T05:14:20;19.00;99.90
21602;DHT22;10963;50.934;4.668;2023-09-08T05:16:45;19.00;99.90
21602;DHT22;10963;50.934;4.668;2023-09-08T05:19:12;19.00;99.90
21602;DHT22;10963;50.934;4.668;2023-09-08T05:21:38;19.00;99.90
21602;DHT22;10963;50.934;4.668;2023-09-08T05:24:08;19.00;99.90
21602;DHT22;10963;50.934;4.668;2023-09-08T05:26:41;19.00;99.90
21602;DHT22;10963;50.934;4.668;2023-09-08T05:29:09;19.00;99.90
21602;DHT22;10963;50.934;4.668;2023-09-08T05:31:35;19.00;99.90
21602;DHT22;10963;50.934;4.668;2023-09-08T05:34:03;19.10;99.90
21602;DHT22;10963;50.934;4.668;2023-09-08T05:36:29;19.10;99.90
21602;DHT22;10963;50.934;4.668;2023-09-08T05:38:56;19.20;99.90
21602;DHT22;10963;50.934;4.668;2023-09-08T05:41:24;19.20;99.90
21602;DHT22;10963;50.934;4.668;2023-09-08T05:43:50;19.40;99.90
21602;DHT22;10963;50.934;4.668;2023-09-08T05:46:18;19.40;99.90
21602;DHT22;10963;50.934;4.668;2023-09-08T05:48:46;19.40;99.90
21602;DHT22;10963;50.934;4.668;2023-09-08T05:51:15;19.40;99.90
21602;DHT22;10963;50.934;4.668;2023-09-08T05:53:43;19.50;99.90
21602;DHT22;10963;50.934;4.668;2023-09-08T05:56:09;19.50;99.90
21602;DHT22;10963;50.934;4.668;2023-09-08T05:58:37;19.60;99.90
21602;DHT22;10963;50.934;4.668;2023-09-08T06:01:04;19.70;99.90
21602;DHT22;10963;50.934;4.668;2023-09-08T06:03:30;19.80;99.90
21602;DHT22;10963;50.934;4.668;2023-09-08T06:06:00;20.00;99.90
21602;DHT22;10963;50.934;4.668;2023-09-08T06:08:26;20.10;99.90
21602;DHT22;10963;50.934;4.668;2023-09-08T06:10:51;20.20;99.90
21602;DHT22;10963;50.934;4.668;2023-09-08T06:13:17;20.30;99.90
21602;DHT22;10963;50.934;4.668;2023-09-08T06:15:43;20.40;99.90
21602;DHT22;10963;50.934;4.668;2023-09-08T06:18:08;20.50;99.90
21602;DHT22;10963;50.934;4.668;2023-09-08T06:20:34;20.50;99.90
21602;DHT22;10963;50.934;4.668;2023-09-08T06:23:00;20.60;99.90
21602;DHT22;10963;50.934;4.668;2023-09-08T06:25:29;20.70;99.90
21602;DHT22;10963;50.934;4.668;2023-09-08T06:27:54;20.90;99.90
21602;DHT22;10963;50.934;4.668;2023-09-08T06:30:20;21.00;99.90
21602;DHT22;10963;50.934;4.668;2023-09-08T06:32:46;21.20;99.90
21602;DHT22;10963;50.934;4.668;2023-09-08T06:35:11;21.30;99.90
21602;DHT22;10963;50.934;4.668;2023-09-08T06:37:38;21.40;99.90
21602;DHT22;10963;50.934;4.668;2023-09-08T06:40:05;21.60;99.90
21602;DHT22;10963;50.934;4.668;2023-09-08T06:42:31;21.80;99.90
21602;DHT22;10963;50.934;4.668;2023-09-08T06:44:57;21.90;99.90
21602;DHT22;10963;50.934;4.668;2023-09-08T06:47:23;22.00;99.90
21602;DHT22;10963;50.934;4.668;2023-09-08T06:49:51;22.10;99.90
21602;DHT22;10963;50.934;4.668;2023-09-08T06:52:17;22.30;99.90
21602;DHT22;10963;50.934;4.668;2023-09-08T06:54:43;22.50;99.90
21602;DHT22;10963;50.934;4.668;2023-09-08T06:57:12;22.60;99.90
21602;DHT22;10963;50.934;4.668;2023-09-08T06:59:38;22.80;99.90
21602;DHT22;10963;50.934;4.668;2023-09-08T07:02:03;22.80;99.90
21602;DHT22;10963;50.934;4.668;2023-09-08T07:04:35;22.80;99.90
21602;DHT22;10963;50.934;4.668;2023-09-08T07:07:00;23.00;99.90
21602;DHT22;10963;50.934;4.668;2023-09-08T07:09:34;23.20;99.90
21602;DHT22;10963;50.934;4.668;2023-09-08T07:12:01;23.30;99.90
21602;DHT22;10963;50.934;4.668;2023-09-08T07:14:27;23.50;99.90
21602;DHT22;10963;50.934;4.668;2023-09-08T07:16:52;23.70;99.90
21602;DHT22;10963;50.934;4.668;2023-09-08T07:19:18;23.90;99.90
21602;DHT22;10963;50.934;4.668;2023-09-08T07:21:44;24.00;99.90
21602;DHT22;10963;50.934;4.668;2023-09-08T07:24:12;24.10;99.90
21602;DHT22;10963;50.934;4.668;2023-09-08T07:26:37;24.30;99.90
21602;DHT22;10963;50.934;4.668;2023-09-08T07:29:03;24.40;99.90
21602;DHT22;10963;50.934;4.668;2023-09-08T07:31:29;24.50;99.90
21602;DHT22;10963;50.934;4.668;2023-09-08T07:33:54;24.60;99.90
21602;DHT22;10963;50.934;4.668;2023-09-08T07:36:23;24.70;99.90
21602;DHT22;10963;50.934;4.668;2023-09-08T07:38:51;24.90;99.90
21602;DHT22;10963;50.934;4.668;2023-09-08T07:41:19;24.90;99.90
21602;DHT22;10963;50.934;4.668;2023-09-08T07:43:44;25.10;99.90
21602;DHT22;10963;50.934;4.668;2023-09-08T07:46:11;25.20;99.90
21602;DHT22;10963;50.934;4.668;2023-09-08T07:48:37;25.30;99.90
21602;DHT22;10963;50.934;4.668;2023-09-08T07:51:02;25.50;99.90
21602;DHT22;10963;50.934;4.668;2023-09-08T07:53:31;25.60;99.90
21602;DHT22;10963;50.934;4.668;2023-09-08T07:55:57;25.80;99.90
21602;DHT22;10963;50.934;4.668;2023-09-08T07:58:33;25.90;99.90
21602;DHT22;10963;50.934;4.668;2023-09-08T08:00:58;26.00;99.90
21602;DHT22;10963;50.934;4.668;2023-09-08T08:03:26;26.20;99.90
21602;DHT22;10963;50.934;4.668;2023-09-08T08:05:56;26.20;99.90
21602;DHT22;10963;50.934;4.668;2023-09-08T08:08:23;26.40;99.90
21602;DHT22;10963;50.934;4.668;2023-09-08T08:10:48;26.40;99.90
21602;DHT22;10963;50.934;4.668;2023-09-08T08:13:14;26.50;99.90
21602;DHT22;10963;50.934;4.668;2023-09-08T08:15:44;26.50;99.90
21602;DHT22;10963;50.934;4.668;2023-09-08T08:18:12;26.60;99.90
21602;DHT22;10963;50.934;4.668;2023-09-08T08:20:38;26.60;99.90
21602;DHT22;10963;50.934;4.668;2023-09-08T08:23:07;26.80;99.90
21602;DHT22;10963;50.934;4.668;2023-09-08T08:25:34;26.90;99.90
21602;DHT22;10963;50.934;4.668;2023-09-08T08:28:02;26.90;99.90
21602;DHT22;10963;50.934;4.668;2023-09-08T08:30:30;27.10;99.90
21602;DHT22;10963;50.934;4.668;2023-09-08T08:32:57;27.20;99.90
21602;DHT22;10963;50.934;4.668;2023-09-08T08:35:25;27.30;99.90
21602;DHT22;10963;50.934;4.668;2023-09-08T08:37:51;27.40;99.90
21602;DHT22;10963;50.934;4.668;2023-09-08T08:40:17;27.40;99.90
21602;DHT22;10963;50.934;4.668;2023-09-08T08:42:43;27.60;99.90
21602;DHT22;10963;50.934;4.668;2023-09-08T08:45:12;27.60;99.90
21602;DHT22;10963;50.934;4.668;2023-09-08T08:47:37;27.70;99.90
21602;DHT22;10963;50.934;4.668;2023-09-08T08:50:05;27.70;99.90
21602;DHT22;10963;50.934;4.668;2023-09-08T08:52:30;27.70;99.90
21602;DHT22;10963;50.934;4.668;2023-09-08T08:54:59;27.70;99.90
21602;DHT22;10963;50.934;4.668;2023-09-08T08:57:27;27.80;99.90
21602;DHT22;10963;50.934;4.668;2023-09-08T08:59:57;27.90;99.90
21602;DHT22;10963;50.934;4.668;2023-09-08T09:02:25;28.20;99.90
21602;DHT22;10963;50.934;4.668;2023-09-08T09:04:53;28.30;99.90
21602;DHT22;10963;50.934;4.668;2023-09-08T09:07:20;28.30;99.90
21602;DHT22;10963;50.934;4.668;2023-09-08T09:09:51;28.40;99.90
21602;DHT22;10963;50.934;4.668;2023-09-08T09:12:17;28.60;99.90
21602;DHT22;10963;50.934;4.668;2023-09-08T09:14:46;28.50;99.90
21602;DHT22;10963;50.934;4.668;2023-09-08T09:17:15;28.50;99.90
21602;DHT22;10963;50.934;4.668;2023-09-08T09:19:41;28.60;99.90
21602;DHT22;10963;50.934;4.668;2023-09-08T09:22:09;28.90;99.90
21602;DHT22;10963;50.934;4.668;2023-09-08T09:24:41;28.90;99.90
21602;DHT22;10963;50.934;4.668;2023-09-08T09:27:10;28.90;99.90
21602;DHT22;10963;50.934;4.668;2023-09-08T09:29:52;29.00;99.90
21602;DHT22;10963;50.934;4.668;2023-09-08T09:32:23;29.10;99.90
21602;DHT22;10963;50.934;4.668;2023-09-08T09:34:53;29.10;99.90
21602;DHT22;10963;50.934;4.668;2023-09-08T09:37:20;29.20;99.90
21602;DHT22;10963;50.934;4.668;2023-09-08T09:39:53;29.30;99.90
21602;DHT22;10963;50.934;4.668;2023-09-08T09:42:20;29.40;99.90
21602;DHT22;10963;50.934;4.668;2023-09-08T09:44:52;29.40;99.90
21602;DHT22;10963;50.934;4.668;2023-09-08T09:47:19;29.40;99.90
21602;DHT22;10963;50.934;4.668;2023-09-08T09:49:48;29.20;99.90
21602;DHT22;10963;50.934;4.668;2023-09-08T09:52:22;29.30;99.90
21602;DHT22;10963;50.934;4.668;2023-09-08T09:54:59;29.50;99.90
21602;DHT22;10963;50.934;4.668;2023-09-08T09:57:25;29.60;99.90
21602;DHT22;10963;50.934;4.668;2023-09-08T09:59:56;29.70;99.90
21602;DHT22;10963;50.934;4.668;2023-09-08T10:02:23;29.70;99.90
21602;DHT22;10963;50.934;4.668;2023-09-08T10:04:53;29.80;99.90
21602;DHT22;10963;50.934;4.668;2023-09-08T10:07:19;29.80;99.90
21602;DHT22;10963;50.934;4.668;2023-09-08T10:09:45;29.90;99.90
21602;DHT22;10963;50.934;4.668;2023-09-08T10:12:14;29.90;99.90
21602;DHT22;10963;50.934;4.668;2023-09-08T10:14:42;29.70;99.90
21602;DHT22;10963;50.934;4.668;2023-09-08T10:17:15;29.90;99.90
21602;DHT22;10963;50.934;4.668;2023-09-08T10:19:44;30.00;99.90
21602;DHT22;10963;50.934;4.668;2023-09-08T10:22:19;30.00;99.90
21602;DHT22;10963;50.934;4.668;2023-09-08T10:24:46;30.20;99.90
21602;DHT22;10963;50.934;4.668;2023-09-08T10:27:14;30.50;99.90
21602;DHT22;10963;50.934;4.668;2023-09-08T10:29:40;30.50;99.90
21602;DHT22;10963;50.934;4.668;2023-09-08T10:32:07;30.50;99.90
21602;DHT22;10963;50.934;4.668;2023-09-08T10:34:37;30.70;99.90
21602;DHT22;10963;50.934;4.668;2023-09-08T10:37:21;30.90;99.90
21602;DHT22;10963;50.934;4.668;2023-09-08T10:39:47;30.90;99.90
21602;DHT22;10963;50.934;4.668;2023-09-08T10:42:19;31.00;99.90
21602;DHT22;10963;50.934;4.668;2023-09-08T10:45:00;30.90;99.90
21602;DHT22;10963;50.934;4.668;2023-09-08T10:47:34;31.10;99.90
21602;DHT22;10963;50.934;4.668;2023-09-08T10:50:05;31.20;99.90
21602;DHT22;10963;50.934;4.668;2023-09-08T10:52:32;31.10;99.90
21602;DHT22;10963;50.934;4.668;2023-09-08T10:54:59;31.10;99.90
21602;DHT22;10963;50.934;4.668;2023-09-08T10:57:25;31.10;99.90
21602;DHT22;10963;50.934;4.668;2023-09-08T10:59:58;31.20;99.90
21602;DHT22;10963;50.934;4.668;2023-09-08T11:02:41;31.40;99.90
21602;DHT22;10963;50.934;4.668;2023-09-08T11:05:14;31.40;99.90
21602;DHT22;10963;50.934;4.668;2023-09-08T11:07:42;31.50;99.90
21602;DHT22;10963;50.934;4.668;2023-09-08T11:10:09;31.40;99.90
21602;DHT22;10963;50.934;4.668;2023-09-08T11:12:35;31.40;99.90
21602;DHT22;10963;50.934;4.668;2023-09-08T11:15:05;31.40;99.90
21602;DHT22;10963;50.934;4.668;2023-09-08T11:17:33;31.50;99.90
21602;DHT22;10963;50.934;4.668;2023-09-08T11:20:03;31.60;99.90
21602;DHT22;10963;50.934;4.668;2023-09-08T11:22:34;31.80;99.90
21602;DHT22;10963;50.934;4.668;2023-09-08T11:25:01;31.80;99.90
21602;DHT22;10963;50.934;4.668;2023-09-08T11:27:30;31.80;99.90
21602;DHT22;10963;50.934;4.668;2023-09-08T11:29:56;31.90;99.90
21602;DHT22;10963;50.934;4.668;2023-09-08T11:32:23;32.00;99.90
21602;DHT22;10963;50.934;4.668;2023-09-08T11:34:52;32.10;99.90
21602;DHT22;10963;50.934;4.668;2023-09-08T11:37:18;32.20;99.90
21602;DHT22;10963;50.934;4.668;2023-09-08T11:39:47;32.40;99.90
21602;DHT22;10963;50.934;4.668;2023-09-08T11:42:16;32.30;99.90
21602;DHT22;10963;50.934;4.668;2023-09-08T11:44:42;32.40;99.90
21602;DHT22;10963;50.934;4.668;2023-09-08T11:47:11;32.40;99.90
21602;DHT22;10963;50.934;4.668;2023-09-08T11:49:38;32.50;99.90
21602;DHT22;10963;50.934;4.668;2023-09-08T11:52:04;32.50;99.90
21602;DHT22;10963;50.934;4.668;2023-09-08T11:54:31;32.70;99.90
21602;DHT22;10963;50.934;4.668;2023-09-08T11:56:59;32.80;99.90
21602;DHT22;10963;50.934;4.668;2023-09-08T11:59:27;32.80;99.90
21602;DHT22;10963;50.934;4.668;2023-09-08T12:01:54;32.90;99.90
21602;DHT22;10963;50.934;4.668;2023-09-08T12:04:25;33.00;99.90
21602;DHT22;10963;50.934;4.668;2023-09-08T12:06:54;32.90;99.90
21602;DHT22;10963;50.934;4.668;2023-09-08T12:09:23;32.90;99.90
21602;DHT22;10963;50.934;4.668;2023-09-08T12:11:53;32.90;99.90
21602;DHT22;10963;50.934;4.668;2023-09-08T12:14:21;32.80;99.90
21602;DHT22;10963;50.934;4.668;2023-09-08T12:16:47;33.00;99.90
21602;DHT22;10963;50.934;4.668;2023-09-08T12:19:31;33.00;99.90
21602;DHT22;10963;50.934;4.668;2023-09-08T12:22:00;33.10;99.90
21602;DHT22;10963;50.934;4.668;2023-09-08T12:24:55;33.10;99.90
21602;DHT22;10963;50.934;4.668;2023-09-08T12:27:28;33.00;99.90
21602;DHT22;10963;50.934;4.668;2023-09-08T12:32:22;33.10;99.90
21602;DHT22;10963;50.934;4.668;2023-09-08T12:34:48;33.10;99.90
21602;DHT22;10963;50.934;4.668;2023-09-08T12:37:14;33.10;99.90
21602;DHT22;10963;50.934;4.668;2023-09-08T12:39:40;33.40;99.90
21602;DHT22;10963;50.934;4.668;2023-09-08T12:42:06;33.40;99.90
21602;DHT22;10963;50.934;4.668;2023-09-08T12:44:34;33.30;99.90
21602;DHT22;10963;50.934;4.668;2023-09-08T12:47:00;33.40;99.90
21602;DHT22;10963;50.934;4.668;2023-09-08T12:49:28;33.30;99.90
21602;DHT22;10963;50.934;4.668;2023-09-08T12:51:53;33.20;99.90
21602;DHT22;10963;50.934;4.668;2023-09-08T12:54:19;33.30;99.90
21602;DHT22;10963;50.934;4.668;2023-09-08T12:56:45;33.40;99.90
21602;DHT22;10963;50.934;4.668;2023-09-08T12:59:10;33.50;99.90
21602;DHT22;10963;50.934;4.668;2023-09-08T13:01:36;33.50;99.90
21602;DHT22;10963;50.934;4.668;2023-09-08T13:04:02;33.60;99.90
21602;DHT22;10963;50.934;4.668;2023-09-08T13:06:27;33.70;99.90
21602;DHT22;10963;50.934;4.668;2023-09-08T13:08:53;33.80;99.90
21602;DHT22;10963;50.934;4.668;2023-09-08T13:11:21;34.00;99.90
21602;DHT22;10963;50.934;4.668;2023-09-08T13:13:47;34.10;99.90
21602;DHT22;10963;50.934;4.668;2023-09-08T13:16:12;34.20;99.90
21602;DHT22;10963;50.934;4.668;2023-09-08T13:18:38;34.10;99.90
21602;DHT22;10963;50.934;4.668;2023-09-08T13:21:09;34.10;99.90
21602;DHT22;10963;50.934;4.668;2023-09-08T13:23:34;34.20;99.90
21602;DHT22;10963;50.934;4.668;2023-09-08T13:26:00;34.00;99.90
21602;DHT22;10963;50.934;4.668;2023-09-08T13:28:28;33.80;99.90
21602;DHT22;10963;50.934;4.668;2023-09-08T13:30:54;33.80;99.90
21602;DHT22;10963;50.934;4.668;2023-09-08T13:33:22;33.80;99.90
21602;DHT22;10963;50.934;4.668;2023-09-08T13:35:50;33.90;99.90
21602;DHT22;10963;50.934;4.668;2023-09-08T13:38:16;34.00;99.90
21602;DHT22;10963;50.934;4.668;2023-09-08T13:40:42;33.90;99.90
21602;DHT22;10963;50.934;4.668;2023-09-08T13:43:10;34.00;99.90
21602;DHT22;10963;50.934;4.668;2023-09-08T13:45:41;34.10;99.90
21602;DHT22;10963;50.934;4.668;2023-09-08T13:48:10;34.20;99.90
21602;DHT22;10963;50.934;4.668;2023-09-08T13:50:38;34.20;99.90
21602;DHT22;10963;50.934;4.668;2023-09-08T13:53:05;34.30;99.90
21602;DHT22;10963;50.934;4.668;2023-09-08T13:55:30;34.40;99.90
21602;DHT22;10963;50.934;4.668;2023-09-08T13:57:58;34.20;99.90
21602;DHT22;10963;50.934;4.668;2023-09-08T14:00:27;34.20;99.90
21602;DHT22;10963;50.934;4.668;2023-09-08T14:02:52;34.20;99.90
21602;DHT22;10963;50.934;4.668;2023-09-08T14:05:18;34.30;99.90
21602;DHT22;10963;50.934;4.668;2023-09-08T14:07:44;34.20;99.90
21602;DHT22;10963;50.934;4.668;2023-09-08T14:10:10;34.10;99.90
21602;DHT22;10963;50.934;4.668;2023-09-08T14:12:36;34.00;99.90
21602;DHT22;10963;50.934;4.668;2023-09-08T14:15:02;34.10;99.90
21602;DHT22;10963;50.934;4.668;2023-09-08T14:17:28;34.20;99.90
21602;DHT22;10963;50.934;4.668;2023-09-08T14:19:54;34.30;99.90
21602;DHT22;10963;50.934;4.668;2023-09-08T14:22:20;34.20;99.90
21602;DHT22;10963;50.934;4.668;2023-09-08T14:24:47;34.30;99.90
21602;DHT22;10963;50.934;4.668;2023-09-08T14:27:13;34.30;99.90
21602;DHT22;10963;50.934;4.668;2023-09-08T14:29:42;34.40;99.90
21602;DHT22;10963;50.934;4.668;2023-09-08T14:32:08;34.40;99.90
21602;DHT22;10963;50.934;4.668;2023-09-08T14:34:34;34.50;99.90
21602;DHT22;10963;50.934;4.668;2023-09-08T14:36:59;34.60;99.90
21602;DHT22;10963;50.934;4.668;2023-09-08T14:39:29;34.60;99.90
21602;DHT22;10963;50.934;4.668;2023-09-08T14:41:55;34.60;99.90
21602;DHT22;10963;50.934;4.668;2023-09-08T14:44:23;34.50;99.90
21602;DHT22;10963;50.934;4.668;2023-09-08T14:46:51;34.30;99.90
21602;DHT22;10963;50.934;4.668;2023-09-08T14:49:17;34.20;99.90
21602;DHT22;10963;50.934;4.668;2023-09-08T14:51:45;34.20;99.90
21602;DHT22;10963;50.934;4.668;2023-09-08T14:54:11;34.00;99.90
21602;DHT22;10963;50.934;4.668;2023-09-08T14:56:39;34.10;99.90
21602;DHT22;10963;50.934;4.668;2023-09-08T14:59:07;34.20;99.90
21602;DHT22;10963;50.934;4.668;2023-09-08T15:01:35;34.10;99.90
21602;DHT22;10963;50.934;4.668;2023-09-08T15:04:01;34.20;99.90
21602;DHT22;10963;50.934;4.668;2023-09-08T15:06:27;34.10;99.90
21602;DHT22;10963;50.934;4.668;2023-09-08T15:08:53;34.20;99.90
21602;DHT22;10963;50.934;4.668;2023-09-08T15:11:18;34.10;99.90
21602;DHT22;10963;50.934;4.668;2023-09-08T15:13:44;33.80;99.90
21602;DHT22;10963;50.934;4.668;2023-09-08T15:16:12;33.70;99.90
21602;DHT22;10963;50.934;4.668;2023-09-08T15:18:40;33.50;99.90
21602;DHT22;10963;50.934;4.668;2023-09-08T15:21:05;33.60;99.90
21602;DHT22;10963;50.934;4.668;2023-09-08T15:23:34;33.70;99.90
21602;DHT22;10963;50.934;4.668;2023-09-08T15:26:00;33.60;99.90
21602;DHT22;10963;50.934;4.668;2023-09-08T15:28:26;33.50;99.90
21602;DHT22;10963;50.934;4.668;2023-09-08T15:30:54;33.50;99.90
21602;DHT22;10963;50.934;4.668;2023-09-08T15:33:23;33.50;99.90
21602;DHT22;10963;50.934;4.668;2023-09-08T15:35:50;33.50;99.90